sensor_id;sensor_type;location;lat;lon;timestamp;pressure;altitude;pressure_sealevel;temperature;humidity
59419;BME280;45224;50.904;6.038;2024-01-06T00:00:21;98484.41;;;6.49;100.00
59419;BME280;45224;50.904;6.038;2024-01-06T00:01:53;98489.53;;;6.46;100.00
59419;BME280;45224;50.904;6.038;2024-01-06T00:03:23;98487.84;;;6.48;100.00
59419;BME280;45224;50.904;6.038;2024-01-06T00:04:54;98492.09;;;6.49;100.00
59419;BME280;45224;50.904;6.038;2024-01-06T00:06:24;98492.97;;;6.51;100.00
59419;BME280;45224;50.904;6.038;2024-01-06T00:07:55;98497.22;;;6.53;100.00
59419;BME280;45224;50.904;6.038;2024-01-06T00:09:25;98499.78;;;6.55;100.00
59419;BME280;45224;50.904;6.038;2024-01-06T00:10:55;98498.09;;;6.51;100.00
59419;BME280;45224;50.904;6.038;2024-01-06T00:12:26;98498.94;;;6.56;100.00
59419;BME280;45224;50.904;6.038;2024-01-06T00:13:56;98498.91;;;6.59;100.00
59419;BME280;45224;50.904;6.038;2024-01-06T00:15:27;98502.34;;;6.58;100.00
59419;BME280;45224;50.904;6.038;2024-01-06T00:16:57;98508.31;;;6.57;100.00
59419;BME280;45224;50.904;6.038;2024-01-06T00:18:28;98509.19;;;6.56;100.00
59419;BME280;45224;50.904;6.038;2024-01-06T00:19:58;98515.19;;;6.58;100.00
59419;BME280;45224;50.904;6.038;2024-01-06T00:21:30;98511.75;;;6.59;100.00
59419;BME280;45224;50.904;6.038;2024-01-06T00:23:00;98516.88;;;6.61;100.00
59419;BME280;45224;50.904;6.038;2024-01-06T00:24:31;98510.03;;;6.61;100.00
59419;BME280;45224;50.904;6.038;2024-01-06T00:26:01;98512.59;;;6.60;100.00
59419;BME280;45224;50.904;6.038;2024-01-06T00:27:32;98513.44;;;6.63;100.00
59419;BME280;45224;50.904;6.038;2024-01-06T00:29:03;98516.00;;;6.63;100.00
59419;BME280;45224;50.904;6.038;2024-01-06T00:30:33;98516.84;;;6.67;100.00
59419;BME280;45224;50.904;6.038;2024-01-06T00:32:04;98511.69;;;6.68;100.00
59419;BME280;45224;50.904;6.038;2024-01-06T00:33:35;98511.69;;;6.70;100.00
59419;BME280;45224;50.904;6.038;2024-01-06T00:35:05;98507.44;;;6.69;100.00
59419;BME280;45224;50.904;6.038;2024-01-06T00:36:36;98512.56;;;6.72;100.00
59419;BME280;45224;50.904;6.038;2024-01-06T00:38:06;98502.28;;;6.70;100.00
59419;BME280;45224;50.904;6.038;2024-01-06T00:39:37;98503.13;;;6.72;100.00
59419;BME280;45224;50.904;6.038;2024-01-06T00:41:07;98509.97;;;6.73;100.00
59419;BME280;45224;50.904;6.038;2024-01-06T00:42:38;98509.09;;;6.74;100.00
59419;BME280;45224;50.904;6.038;2024-01-06T00:44:08;98504.84;;;6.73;100.00
59419;BME280;45224;50.904;6.038;2024-01-06T00:45:38;98508.25;;;6.77;100.00
59419;BME280;45224;50.904;6.038;2024-01-06T00:47:09;98512.50;;;6.80;100.00
59419;BME280;45224;50.904;6.038;2024-01-06T00:48:39;98509.06;;;6.81;100.00
59419;BME280;45224;50.904;6.038;2024-01-06T00:50:10;98512.50;;;6.81;100.00
59419;BME280;45224;50.904;6.038;2024-01-06T00:51:40;98515.06;;;6.80;100.00
59419;BME280;45224;50.904;6.038;2024-01-06T00:53:12;98519.34;;;6.81;100.00
59419;BME280;45224;50.904;6.038;2024-01-06T00:54:42;98512.50;;;6.81;100.00
59419;BME280;45224;50.904;6.038;2024-01-06T00:56:12;98514.22;;;6.81;100.00
59419;BME280;45224;50.904;6.038;2024-01-06T00:57:43;98515.06;;;6.80;100.00
59419;BME280;45224;50.904;6.038;2024-01-06T00:59:13;98521.91;;;6.81;100.00
59419;BME280;45224;50.904;6.038;2024-01-06T01:00:44;98513.38;;;6.79;100.00
59419;BME280;45224;50.904;6.038;2024-01-06T01:02:14;98523.63;;;6.82;100.00
59419;BME280;45224;50.904;6.038;2024-01-06T01:03:45;98522.75;;;6.83;100.00
59419;BME280;45224;50.904;6.038;2024-01-06T01:05:15;98519.34;;;6.79;100.00
59419;BME280;45224;50.904;6.038;2024-01-06T01:06:45;98521.91;;;6.81;100.00
59419;BME280;45224;50.904;6.038;2024-01-06T01:08:16;98525.31;;;6.86;100.00
59419;BME280;45224;50.904;6.038;2024-01-06T01:09:46;98521.91;;;6.81;100.00
59419;BME280;45224;50.904;6.038;2024-01-06T01:11:18;98532.19;;;6.81;100.00
59419;BME280;45224;50.904;6.038;2024-01-06T01:12:49;98521.91;;;6.81;100.00
59419;BME280;45224;50.904;6.038;2024-01-06T01:14:19;98537.31;;;6.84;100.00
59419;BME280;45224;50.904;6.038;2024-01-06T01:15:50;98531.34;;;6.82;100.00
59419;BME280;45224;50.904;6.038;2024-01-06T01:17:20;98530.47;;;6.83;100.00
59419;BME280;45224;50.904;6.038;2024-01-06T01:18:50;98534.72;;;6.88;100.00
59419;BME280;45224;50.904;6.038;2024-01-06T01:20:21;98534.72;;;6.88;100.00
59419;BME280;45224;50.904;6.038;2024-01-06T01:21:51;98539.88;;;6.85;100.00
59419;BME280;45224;50.904;6.038;2024-01-06T01:23:25;98538.13;;;6.90;100.00
59419;BME280;45224;50.904;6.038;2024-01-06T01:24:56;98538.97;;;6.94;100.00
59419;BME280;45224;50.904;6.038;2024-01-06T01:26:27;98553.56;;;6.90;100.00
59419;BME280;45224;50.904;6.038;2024-01-06T01:27:57;98545.84;;;6.90;100.00
59419;BME280;45224;50.904;6.038;2024-01-06T01:29:27;98551.81;;;6.92;100.00
59419;BME280;45224;50.904;6.038;2024-01-06T01:30:58;98554.38;;;6.94;100.00
59419;BME280;45224;50.904;6.038;2024-01-06T01:32:28;98551.81;;;6.95;100.00
59419;BME280;45224;50.904;6.038;2024-01-06T01:33:59;98559.50;;;6.97;100.00
59419;BME280;45224;50.904;6.038;2024-01-06T01:35:29;98551.00;;;6.89;100.00
59419;BME280;45224;50.904;6.038;2024-01-06T01:37:00;98558.66;;;6.97;100.00
59419;BME280;45224;50.904;6.038;2024-01-06T01:38:30;98556.97;;;6.94;100.00
59419;BME280;45224;50.904;6.038;2024-01-06T01:40:01;98557.81;;;6.96;100.00
59419;BME280;45224;50.904;6.038;2024-01-06T01:41:31;98553.53;;;6.97;100.00
59419;BME280;45224;50.904;6.038;2024-01-06T01:43:01;98556.94;;;6.95;100.00
59419;BME280;45224;50.904;6.038;2024-01-06T01:44:32;98563.00;;;6.88;100.00
59419;BME280;45224;50.904;6.038;2024-01-06T01:46:02;98569.81;;;6.94;100.00
59419;BME280;45224;50.904;6.038;2024-01-06T01:47:33;98565.53;;;6.93;100.00
59419;BME280;45224;50.904;6.038;2024-01-06T01:49:04;98568.13;;;6.90;100.00
59419;BME280;45224;50.904;6.038;2024-01-06T01:50:34;98567.25;;;6.88;100.00
59419;BME280;45224;50.904;6.038;2024-01-06T01:52:05;98569.88;;;6.85;100.00
59419;BME280;45224;50.904;6.038;2024-01-06T01:53:36;98568.13;;;6.88;100.00
59419;BME280;45224;50.904;6.038;2024-01-06T01:55:07;98576.69;;;6.89;100.00
59419;BME280;45224;50.904;6.038;2024-01-06T01:56:39;98575.00;;;6.85;100.00
59419;BME280;45224;50.904;6.038;2024-01-06T01:58:12;98569.00;;;6.84;100.00
59419;BME280;45224;50.904;6.038;2024-01-06T01:59:43;98571.53;;;6.89;100.00
59419;BME280;45224;50.904;6.038;2024-01-06T02:01:14;98579.25;;;6.92;100.00
59419;BME280;45224;50.904;6.038;2024-01-06T02:02:45;98579.25;;;6.92;100.00
59419;BME280;45224;50.904;6.038;2024-01-06T02:04:16;98576.69;;;6.92;100.00
59419;BME280;45224;50.904;6.038;2024-01-06T02:05:46;98578.38;;;6.96;100.00
59419;BME280;45224;50.904;6.038;2024-01-06T02:07:17;98574.94;;;6.94;100.00
59419;BME280;45224;50.904;6.038;2024-01-06T02:08:47;98581.81;;;6.95;100.00
59419;BME280;45224;50.904;6.038;2024-01-06T02:10:18;98576.66;;;6.97;100.00
59419;BME280;45224;50.904;6.038;2024-01-06T02:11:48;98579.22;;;6.95;100.00
59419;BME280;45224;50.904;6.038;2024-01-06T02:13:19;98584.34;;;6.98;100.00
59419;BME280;45224;50.904;6.038;2024-01-06T02:14:49;98585.22;;;6.97;100.00
59419;BME280;45224;50.904;6.038;2024-01-06T02:16:20;98583.53;;;6.96;100.00
59419;BME280;45224;50.904;6.038;2024-01-06T02:17:50;98588.63;;;6.99;100.00
59419;BME280;45224;50.904;6.038;2024-01-06T02:19:21;98592.91;;;7.03;100.00
59419;BME280;45224;50.904;6.038;2024-01-06T02:20:52;98589.50;;;6.98;100.00
59419;BME280;45224;50.904;6.038;2024-01-06T02:22:25;98588.63;;;6.99;100.00
59419;BME280;45224;50.904;6.038;2024-01-06T02:23:56;98592.06;;;7.01;100.00
59419;BME280;45224;50.904;6.038;2024-01-06T02:25:26;98589.50;;;6.98;100.00
59419;BME280;45224;50.904;6.038;2024-01-06T02:26:57;98589.50;;;6.98;100.00
59419;BME280;45224;50.904;6.038;2024-01-06T02:28:27;98588.63;;;6.99;100.00
59419;BME280;45224;50.904;6.038;2024-01-06T02:29:58;98586.91;;;7.01;100.00
59419;BME280;45224;50.904;6.038;2024-01-06T02:31:28;98588.63;;;6.99;100.00
59419;BME280;45224;50.904;6.038;2024-01-06T02:32:58;98595.47;;;7.00;100.00
59419;BME280;45224;50.904;6.038;2024-01-06T02:34:29;98581.81;;;6.89;100.00
59419;BME280;45224;50.904;6.038;2024-01-06T02:35:59;98601.50;;;6.94;100.00
59419;BME280;45224;50.904;6.038;2024-01-06T02:37:30;98592.94;;;6.91;100.00
59419;BME280;45224;50.904;6.038;2024-01-06T02:39:00;98591.25;;;6.91;100.00
59419;BME280;45224;50.904;6.038;2024-01-06T02:40:31;98597.22;;;6.92;100.00
59419;BME280;45224;50.904;6.038;2024-01-06T02:42:03;98601.53;;;6.93;100.00
59419;BME280;45224;50.904;6.038;2024-01-06T02:43:33;98602.38;;;6.89;100.00
59419;BME280;45224;50.904;6.038;2024-01-06T02:45:04;98605.78;;;6.94;100.00
59419;BME280;45224;50.904;6.038;2024-01-06T02:46:34;98600.63;;;6.94;100.00
59419;BME280;45224;50.904;6.038;2024-01-06T02:48:05;98606.66;;;6.96;100.00
59419;BME280;45224;50.904;6.038;2024-01-06T02:49:35;98612.63;;;6.95;100.00
59419;BME280;45224;50.904;6.038;2024-01-06T02:51:06;98612.66;;;6.92;100.00
59419;BME280;45224;50.904;6.038;2024-01-06T02:52:36;98611.78;;;6.94;100.00
59419;BME280;45224;50.904;6.038;2024-01-06T02:54:07;98614.34;;;6.96;100.00
59419;BME280;45224;50.904;6.038;2024-01-06T02:55:37;98624.63;;;6.96;100.00
59419;BME280;45224;50.904;6.038;2024-01-06T02:57:07;98619.50;;;6.93;100.00
59419;BME280;45224;50.904;6.038;2024-01-06T02:58:38;98624.63;;;6.96;100.00
59419;BME280;45224;50.904;6.038;2024-01-06T03:00:09;98625.47;;;6.97;100.00
59419;BME280;45224;50.904;6.038;2024-01-06T03:01:40;98622.91;;;6.95;100.00
59419;BME280;45224;50.904;6.038;2024-01-06T03:03:10;98624.63;;;6.96;100.00
59419;BME280;45224;50.904;6.038;2024-01-06T03:04:41;98617.78;;;6.95;100.00
59419;BME280;45224;50.904;6.038;2024-01-06T03:06:11;98624.63;;;6.96;100.00
59419;BME280;45224;50.904;6.038;2024-01-06T03:07:42;98626.34;;;6.92;100.00
59419;BME280;45224;50.904;6.038;2024-01-06T03:09:12;98631.47;;;6.97;100.00
59419;BME280;45224;50.904;6.038;2024-01-06T03:10:43;98634.06;;;6.89;100.00
59419;BME280;45224;50.904;6.038;2024-01-06T03:12:13;98629.78;;;6.93;100.00
59419;BME280;45224;50.904;6.038;2024-01-06T03:13:44;98639.19;;;6.94;100.00
59419;BME280;45224;50.904;6.038;2024-01-06T03:15:15;98646.94;;;6.85;100.00
59419;BME280;45224;50.904;6.038;2024-01-06T03:16:45;98641.84;;;6.72;100.00
59419;BME280;45224;50.904;6.038;2024-01-06T03:18:15;98650.44;;;6.45;100.00
59419;BME280;45224;50.904;6.038;2024-01-06T03:19:46;98653.88;;;6.49;100.00
59419;BME280;45224;50.904;6.038;2024-01-06T03:21:19;98653.84;;;6.56;100.00
59419;BME280;45224;50.904;6.038;2024-01-06T03:22:50;98655.56;;;6.62;100.00
59419;BME280;45224;50.904;6.038;2024-01-06T03:24:21;98653.84;;;6.64;100.00
59419;BME280;45224;50.904;6.038;2024-01-06T03:25:52;98660.66;;;6.68;100.00
59419;BME280;45224;50.904;6.038;2024-01-06T03:27:22;98656.41;;;6.60;100.00
59419;BME280;45224;50.904;6.038;2024-01-06T03:28:54;98652.13;;;6.66;100.00
59419;BME280;45224;50.904;6.038;2024-01-06T03:30:24;98652.13;;;6.66;100.00
59419;BME280;45224;50.904;6.038;2024-01-06T03:31:55;98661.56;;;6.58;100.00
59419;BME280;45224;50.904;6.038;2024-01-06T03:33:25;98655.56;;;6.59;100.00
59419;BME280;45224;50.904;6.038;2024-01-06T03:34:56;98663.28;;;6.54;100.00
59419;BME280;45224;50.904;6.038;2024-01-06T03:36:26;98655.56;;;6.59;100.00
59419;BME280;45224;50.904;6.038;2024-01-06T03:37:57;98667.53;;;6.52;100.00
59419;BME280;45224;50.904;6.038;2024-01-06T03:39:27;98662.44;;;6.48;100.00
59419;BME280;45224;50.904;6.038;2024-01-06T03:40:58;98667.59;;;6.38;100.00
59419;BME280;45224;50.904;6.038;2024-01-06T03:42:28;98662.44;;;6.48;100.00
59419;BME280;45224;50.904;6.038;2024-01-06T03:43:59;98667.56;;;6.51;100.00
59419;BME280;45224;50.904;6.038;2024-01-06T03:45:29;98668.41;;;6.53;100.00
59419;BME280;45224;50.904;6.038;2024-01-06T03:47:00;98672.72;;;6.51;100.00
59419;BME280;45224;50.904;6.038;2024-01-06T03:48:30;98675.28;;;6.43;100.00
59419;BME280;45224;50.904;6.038;2024-01-06T03:50:02;98677.00;;;6.35;100.00
59419;BME280;45224;50.904;6.038;2024-01-06T03:51:32;98674.41;;;6.09;100.00
59419;BME280;45224;50.904;6.038;2024-01-06T03:53:03;98681.28;;;6.13;100.00
59419;BME280;45224;50.904;6.038;2024-01-06T03:54:33;98671.84;;;6.09;100.00
59419;BME280;45224;50.904;6.038;2024-01-06T03:56:04;98674.44;;;5.99;100.00
59419;BME280;45224;50.904;6.038;2024-01-06T03:57:34;98682.13;;;6.13;100.00
59419;BME280;45224;50.904;6.038;2024-01-06T03:59:05;98687.25;;;6.18;100.00
59419;BME280;45224;50.904;6.038;2024-01-06T04:00:35;98689.81;;;6.09;100.00
59419;BME280;45224;50.904;6.038;2024-01-06T04:02:06;98691.56;;;6.16;100.00
59419;BME280;45224;50.904;6.038;2024-01-06T04:03:37;98693.28;;;6.15;100.00
59419;BME280;45224;50.904;6.038;2024-01-06T04:05:09;98694.97;;;6.12;100.00
59419;BME280;45224;50.904;6.038;2024-01-06T04:06:39;98692.38;;;6.12;100.00
59419;BME280;45224;50.904;6.038;2024-01-06T04:08:10;98689.84;;;6.16;100.00
59419;BME280;45224;50.904;6.038;2024-01-06T04:09:42;98694.97;;;6.19;100.00
59419;BME280;45224;50.904;6.038;2024-01-06T04:11:13;98690.69;;;6.20;100.00
59419;BME280;45224;50.904;6.038;2024-01-06T04:12:43;98698.38;;;6.21;100.00
59419;BME280;45224;50.904;6.038;2024-01-06T04:14:14;98694.13;;;6.17;100.00
59419;BME280;45224;50.904;6.038;2024-01-06T04:15:44;98697.53;;;6.15;100.00
59419;BME280;45224;50.904;6.038;2024-01-06T04:17:15;98700.09;;;6.18;100.00
59419;BME280;45224;50.904;6.038;2024-01-06T04:18:45;98700.97;;;6.17;100.00
59419;BME280;45224;50.904;6.038;2024-01-06T04:20:16;98704.38;;;6.14;100.00
59419;BME280;45224;50.904;6.038;2024-01-06T04:21:46;98700.09;;;6.15;100.00
59419;BME280;45224;50.904;6.038;2024-01-06T04:23:18;98698.41;;;6.17;100.00
59419;BME280;45224;50.904;6.038;2024-01-06T04:24:48;98698.38;;;6.18;100.00
59419;BME280;45224;50.904;6.038;2024-01-06T04:26:19;98700.97;;;6.17;100.00
59419;BME280;45224;50.904;6.038;2024-01-06T04:27:49;98703.50;;;6.18;100.00
59419;BME280;45224;50.904;6.038;2024-01-06T04:29:20;98702.66;;;6.15;100.00
59419;BME280;45224;50.904;6.038;2024-01-06T04:30:51;98711.22;;;6.18;100.00
59419;BME280;45224;50.904;6.038;2024-01-06T04:32:21;98705.22;;;6.18;100.00
59419;BME280;45224;50.904;6.038;2024-01-06T04:33:52;98706.94;;;6.19;100.00
59419;BME280;45224;50.904;6.038;2024-01-06T04:35:23;98712.09;;;6.22;100.00
59419;BME280;45224;50.904;6.038;2024-01-06T04:36:54;98706.94;;;6.19;100.00
59419;BME280;45224;50.904;6.038;2024-01-06T04:38:24;98710.38;;;5.99;100.00
59419;BME280;45224;50.904;6.038;2024-01-06T04:39:55;98715.50;;;5.99;100.00
59419;BME280;45224;50.904;6.038;2024-01-06T04:41:26;98715.44;;;5.95;100.00
59419;BME280;45224;50.904;6.038;2024-01-06T04:42:56;98713.78;;;6.01;100.00
59419;BME280;45224;50.904;6.038;2024-01-06T04:44:27;98714.56;;;5.96;100.00
59419;BME280;45224;50.904;6.038;2024-01-06T04:45:57;98712.03;;;5.91;100.00
59419;BME280;45224;50.904;6.038;2024-01-06T04:47:28;98721.44;;;5.94;100.00
59419;BME280;45224;50.904;6.038;2024-01-06T04:49:00;98713.78;;;5.98;100.00
59419;BME280;45224;50.904;6.038;2024-01-06T04:50:31;98706.06;;;5.97;100.00
59419;BME280;45224;50.904;6.038;2024-01-06T04:52:01;98716.28;;;5.95;100.00
59419;BME280;45224;50.904;6.038;2024-01-06T04:53:32;98715.50;;;5.99;100.00
59419;BME280;45224;50.904;6.038;2024-01-06T04:55:03;98714.63;;;5.97;100.00
59419;BME280;45224;50.904;6.038;2024-01-06T04:56:33;98721.47;;;6.03;100.00
59419;BME280;45224;50.904;6.038;2024-01-06T04:58:04;98713.78;;;6.05;100.00
59419;BME280;45224;50.904;6.038;2024-01-06T04:59:34;98718.06;;;6.02;100.00
59419;BME280;45224;50.904;6.038;2024-01-06T05:01:05;98714.63;;;6.05;100.00
59419;BME280;45224;50.904;6.038;2024-01-06T05:02:35;98718.03;;;6.09;100.00
59419;BME280;45224;50.904;6.038;2024-01-06T05:04:06;98721.47;;;6.05;100.00
59419;BME280;45224;50.904;6.038;2024-01-06T05:05:36;98724.88;;;5.97;100.00
59419;BME280;45224;50.904;6.038;2024-01-06T05:07:06;98720.63;;;6.01;100.00
59419;BME280;45224;50.904;6.038;2024-01-06T05:08:37;98725.75;;;5.98;100.00
59419;BME280;45224;50.904;6.038;2024-01-06T05:10:11;98732.59;;;6.00;100.00
59419;BME280;45224;50.904;6.038;2024-01-06T05:11:45;98730.88;;;5.99;100.00
59419;BME280;45224;50.904;6.038;2024-01-06T05:13:15;98737.69;;;5.94;100.00
59419;BME280;45224;50.904;6.038;2024-01-06T05:14:46;98738.59;;;5.96;100.00
59419;BME280;45224;50.904;6.038;2024-01-06T05:16:16;98739.38;;;5.89;100.00
59419;BME280;45224;50.904;6.038;2024-01-06T05:17:47;98744.56;;;5.98;100.00
59419;BME280;45224;50.904;6.038;2024-01-06T05:19:17;98747.06;;;5.92;100.00
59419;BME280;45224;50.904;6.038;2024-01-06T05:20:50;98746.19;;;5.75;100.00
59419;BME280;45224;50.904;6.038;2024-01-06T05:22:20;98747.91;;;5.82;100.00
59419;BME280;45224;50.904;6.038;2024-01-06T05:23:51;98746.19;;;5.79;100.00
59419;BME280;45224;50.904;6.038;2024-01-06T05:25:21;98746.19;;;5.81;100.00
59419;BME280;45224;50.904;6.038;2024-01-06T05:26:52;98745.38;;;5.85;100.00
59419;BME280;45224;50.904;6.038;2024-01-06T05:28:22;98748.75;;;5.81;100.00
59419;BME280;45224;50.904;6.038;2024-01-06T05:29:53;98751.31;;;5.78;100.00
59419;BME280;45224;50.904;6.038;2024-01-06T05:31:23;98751.31;;;5.75;100.00
59419;BME280;45224;50.904;6.038;2024-01-06T05:32:53;98748.75;;;5.72;100.00
59419;BME280;45224;50.904;6.038;2024-01-06T05:34:24;98762.41;;;5.69;100.00
59419;BME280;45224;50.904;6.038;2024-01-06T05:35:54;98756.38;;;5.53;100.00
59419;BME280;45224;50.904;6.038;2024-01-06T05:37:25;98758.91;;;5.48;100.00
59419;BME280;45224;50.904;6.038;2024-01-06T05:38:55;98763.13;;;5.37;100.00
59419;BME280;45224;50.904;6.038;2024-01-06T05:40:26;98759.78;;;5.47;100.00
59419;BME280;45224;50.904;6.038;2024-01-06T05:41:56;98764.06;;;5.50;100.00
59419;BME280;45224;50.904;6.038;2024-01-06T05:43:27;98762.38;;;5.57;100.00
59419;BME280;45224;50.904;6.038;2024-01-06T05:44:57;98767.50;;;5.61;100.00
59419;BME280;45224;50.904;6.038;2024-01-06T05:46:28;98768.34;;;5.51;100.00
59419;BME280;45224;50.904;6.038;2024-01-06T05:47:58;98770.94;;;5.59;100.00
59419;BME280;45224;50.904;6.038;2024-01-06T05:49:28;98778.63;;;5.63;100.00
59419;BME280;45224;50.904;6.038;2024-01-06T05:50:59;98775.19;;;5.58;100.00
59419;BME280;45224;50.904;6.038;2024-01-06T05:52:29;98770.06;;;5.57;100.00
59419;BME280;45224;50.904;6.038;2024-01-06T05:54:00;98776.91;;;5.56;100.00
59419;BME280;45224;50.904;6.038;2024-01-06T05:55:30;98780.31;;;5.58;100.00
59419;BME280;45224;50.904;6.038;2024-01-06T05:57:01;98784.56;;;5.52;100.00
59419;BME280;45224;50.904;6.038;2024-01-06T05:58:31;98787.97;;;5.44;100.00
59419;BME280;45224;50.904;6.038;2024-01-06T06:00:02;98783.69;;;5.42;100.00
59419;BME280;45224;50.904;6.038;2024-01-06T06:01:43;98788.84;;;5.49;100.00
59419;BME280;45224;50.904;6.038;2024-01-06T06:03:14;98786.28;;;5.48;100.00
59419;BME280;45224;50.904;6.038;2024-01-06T06:04:44;98795.66;;;5.52;100.00
59419;BME280;45224;50.904;6.038;2024-01-06T06:06:14;98789.69;;;5.52;100.00
59419;BME280;45224;50.904;6.038;2024-01-06T06:07:45;98801.69;;;5.57;100.00
59419;BME280;45224;50.904;6.038;2024-01-06T06:09:16;98805.88;;;5.37;100.00
59419;BME280;45224;50.904;6.038;2024-01-06T06:10:46;98807.59;;;5.38;100.00
59419;BME280;45224;50.904;6.038;2024-01-06T06:12:43;98816.06;;;5.27;100.00
59419;BME280;45224;50.904;6.038;2024-01-06T06:14:13;98812.66;;;5.28;100.00
59419;BME280;45224;50.904;6.038;2024-01-06T06:15:44;98814.38;;;5.26;100.00
59419;BME280;45224;50.904;6.038;2024-01-06T06:17:14;98818.56;;;5.20;100.00
59419;BME280;45224;50.904;6.038;2024-01-06T06:18:45;98822.75;;;5.04;100.00
59419;BME280;45224;50.904;6.038;2024-01-06T06:20:15;98827.09;;;5.16;100.00
59419;BME280;45224;50.904;6.038;2024-01-06T06:21:46;98828.72;;;5.03;100.00
59419;BME280;45224;50.904;6.038;2024-01-06T06:23:16;98831.34;;;5.15;100.00
59419;BME280;45224;50.904;6.038;2024-01-06T06:24:46;98837.25;;;5.02;100.00
59419;BME280;45224;50.904;6.038;2024-01-06T06:26:17;98843.25;;;5.01;100.00
59419;BME280;45224;50.904;6.038;2024-01-06T06:27:48;98843.25;;;5.01;100.00
59419;BME280;45224;50.904;6.038;2024-01-06T06:29:18;98845.84;;;5.10;100.00
59419;BME280;45224;50.904;6.038;2024-01-06T06:30:51;98860.41;;;5.14;100.00
59419;BME280;45224;50.904;6.038;2024-01-06T06:32:21;98853.56;;;5.15;100.00
59419;BME280;45224;50.904;6.038;2024-01-06T06:33:52;98858.63;;;5.07;100.00
59419;BME280;45224;50.904;6.038;2024-01-06T06:35:24;98855.25;;;5.11;100.00
59419;BME280;45224;50.904;6.038;2024-01-06T06:36:54;98859.47;;;5.01;100.00
59419;BME280;45224;50.904;6.038;2024-01-06T06:38:25;98865.06;;;4.57;100.00
59419;BME280;45224;50.904;6.038;2024-01-06T06:39:56;98860.75;;;4.51;100.00
59419;BME280;45224;50.904;6.038;2024-01-06T06:41:27;98866.50;;;4.29;100.00
59419;BME280;45224;50.904;6.038;2024-01-06T06:42:57;98870.72;;;4.24;100.00
59419;BME280;45224;50.904;6.038;2024-01-06T06:44:27;98871.50;;;4.19;100.00
59419;BME280;45224;50.904;6.038;2024-01-06T06:45:59;98877.28;;;4.03;100.00
59419;BME280;45224;50.904;6.038;2024-01-06T06:47:30;98879.69;;;3.88;100.00
59419;BME280;45224;50.904;6.038;2024-01-06T06:49:00;98866.19;;;4.01;100.00
59419;BME280;45224;50.904;6.038;2024-01-06T06:50:30;98878.25;;;4.11;100.00
59419;BME280;45224;50.904;6.038;2024-01-06T06:52:01;98886.41;;;3.82;100.00
59419;BME280;45224;50.904;6.038;2024-01-06T06:53:33;98886.31;;;3.72;100.00
59419;BME280;45224;50.904;6.038;2024-01-06T06:55:04;98885.56;;;3.82;100.00
59419;BME280;45224;50.904;6.038;2024-01-06T06:56:34;98886.41;;;3.81;100.00
59419;BME280;45224;50.904;6.038;2024-01-06T06:58:05;98892.53;;;3.94;100.00
59419;BME280;45224;50.904;6.038;2024-01-06T06:59:36;98887.88;;;3.62;100.00
59419;BME280;45224;50.904;6.038;2024-01-06T07:01:06;98893.13;;;3.74;100.00
59419;BME280;45224;50.904;6.038;2024-01-06T07:02:36;98896.59;;;3.79;100.00
59419;BME280;45224;50.904;6.038;2024-01-06T07:04:07;98903.16;;;3.59;100.00
59419;BME280;45224;50.904;6.038;2024-01-06T07:05:37;98899.88;;;3.69;100.00
59419;BME280;45224;50.904;6.038;2024-01-06T07:07:09;98912.63;;;3.66;100.00
59419;BME280;45224;50.904;6.038;2024-01-06T07:08:39;98908.56;;;3.80;100.00
59419;BME280;45224;50.904;6.038;2024-01-06T07:10:12;98914.72;;;3.95;100.00
59419;BME280;45224;50.904;6.038;2024-01-06T07:11:43;98915.66;;;4.03;100.00
59419;BME280;45224;50.904;6.038;2024-01-06T07:13:13;98915.53;;;3.94;100.00
59419;BME280;45224;50.904;6.038;2024-01-06T07:14:44;98917.28;;;3.96;100.00
59419;BME280;45224;50.904;6.038;2024-01-06T07:16:14;98922.47;;;4.01;100.00
59419;BME280;45224;50.904;6.038;2024-01-06T07:17:45;98922.59;;;4.10;100.00
59419;BME280;45224;50.904;6.038;2024-01-06T07:19:15;98919.13;;;4.08;100.00
59419;BME280;45224;50.904;6.038;2024-01-06T07:20:46;98927.72;;;4.15;100.00
59419;BME280;45224;50.904;6.038;2024-01-06T07:22:16;98930.84;;;3.91;100.00
59419;BME280;45224;50.904;6.038;2024-01-06T07:23:48;98932.78;;;4.07;100.00
59419;BME280;45224;50.904;6.038;2024-01-06T07:25:19;98932.03;;;4.17;100.00
59419;BME280;45224;50.904;6.038;2024-01-06T07:26:49;98937.31;;;4.30;100.00
59419;BME280;45224;50.904;6.038;2024-01-06T07:28:20;98941.50;;;4.26;100.00
59419;BME280;45224;50.904;6.038;2024-01-06T07:29:51;98943.22;;;4.26;100.00
59419;BME280;45224;50.904;6.038;2024-01-06T07:31:21;98948.50;;;4.38;100.00
59419;BME280;45224;50.904;6.038;2024-01-06T07:32:51;98951.00;;;4.33;100.00
59419;BME280;45224;50.904;6.038;2024-01-06T07:34:22;98956.13;;;4.35;100.00
59419;BME280;45224;50.904;6.038;2024-01-06T07:35:52;98958.56;;;4.26;100.00
59419;BME280;45224;50.904;6.038;2024-01-06T07:37:23;98961.47;;;3.84;100.00
59419;BME280;45224;50.904;6.038;2024-01-06T07:38:53;98968.59;;;4.07;100.00
59419;BME280;45224;50.904;6.038;2024-01-06T07:40:24;98969.59;;;4.20;100.00
59419;BME280;45224;50.904;6.038;2024-01-06T07:41:55;98967.00;;;4.15;100.00
59419;BME280;45224;50.904;6.038;2024-01-06T07:43:26;98970.25;;;4.05;100.00
59419;BME280;45224;50.904;6.038;2024-01-06T07:44:56;98973.53;;;3.95;100.00
59419;BME280;45224;50.904;6.038;2024-01-06T07:46:27;98972.81;;;4.07;100.00
59419;BME280;45224;50.904;6.038;2024-01-06T07:47:58;98974.28;;;3.89;100.00
59419;BME280;45224;50.904;6.038;2024-01-06T07:49:28;98978.81;;;4.06;100.00
59419;BME280;45224;50.904;6.038;2024-01-06T07:50:59;98992.34;;;4.00;100.00
59419;BME280;45224;50.904;6.038;2024-01-06T07:52:29;98982.22;;;4.06;100.00
59419;BME280;45224;50.904;6.038;2024-01-06T07:54:00;98983.16;;;4.14;100.00
59419;BME280;45224;50.904;6.038;2024-01-06T07:55:31;98992.63;;;4.18;100.00
59419;BME280;45224;50.904;6.038;2024-01-06T07:57:01;98997.78;;;4.22;100.00
59419;BME280;45224;50.904;6.038;2024-01-06T07:58:32;98992.63;;;4.20;100.00
59419;BME280;45224;50.904;6.038;2024-01-06T08:00:03;98998.66;;;4.25;100.00